createdAt,value
2022-11-20T00:00:41.625Z,96218.81
2022-11-20T00:01:43.245Z,96227.31
2022-11-20T00:02:44.847Z,96212.97
2022-11-20T00:03:47.358Z,96219.16
2022-11-20T00:04:49.038Z,96212.59
2022-11-20T00:05:50.565Z,96222.66
2022-11-20T00:06:52.135Z,96212.97
2022-11-20T00:07:53.641Z,96217.63
2022-11-20T00:08:57.481Z,96222.25
2022-11-20T00:09:59.016Z,96217.25
2022-11-20T00:11:21.270Z,96218.41
2022-11-20T00:12:22.822Z,96215.31
2022-11-20T00:13:24.551Z,96213.75
2022-11-20T00:14:26.090Z,96219.97
2022-11-20T00:15:27.630Z,96222.28
2022-11-20T00:16:32.140Z,96217.63
2022-11-20T00:17:33.698Z,96212.22
2022-11-20T00:18:36.180Z,96216.09
2022-11-20T00:19:37.741Z,96211.44
2022-11-20T00:20:39.378Z,96219.56
2022-11-20T00:21:40.892Z,96209.88
2022-11-20T00:22:42.490Z,96206.00
2022-11-20T00:23:44.205Z,96203.69
2022-11-20T00:24:45.753Z,96212.22
2022-11-20T00:25:47.251Z,96200.63
2022-11-20T00:26:48.825Z,96215.31
2022-11-20T00:27:50.442Z,96216.06
2022-11-20T00:28:56.903Z,96224.22
2022-11-20T00:29:58.526Z,96217.63
2022-11-20T00:31:04.270Z,96207.56
2022-11-20T00:32:05.834Z,96212.97
2022-11-20T00:33:07.382Z,96218.41
2022-11-20T00:34:10.476Z,96226.53
2022-11-20T00:35:12.087Z,96229.25
2022-11-20T00:36:19.304Z,96215.69
2022-11-20T00:37:20.851Z,96227.69
2022-11-20T00:38:22.410Z,96225.38
2022-11-20T00:39:24.084Z,96228.50
2022-11-20T00:40:25.727Z,96234.66
2022-11-20T00:41:29.035Z,96227.72
2022-11-20T00:42:30.583Z,96223.84
2022-11-20T00:43:32.177Z,96220.78
2022-11-20T00:44:33.699Z,96214.56
2022-11-20T00:45:35.270Z,96214.53
2022-11-20T00:46:37.419Z,96210.66
2022-11-20T00:47:38.926Z,96214.53
2022-11-20T00:48:40.438Z,96218.03
2022-11-20T00:49:42.008Z,96212.22
2022-11-20T00:50:43.628Z,96213.00
2022-11-20T00:51:45.166Z,96208.72
2022-11-20T00:52:46.695Z,96220.38
2022-11-20T00:53:48.645Z,96218.06
2022-11-20T00:54:50.166Z,96211.47
2022-11-20T00:56:00.098Z,96207.59
2022-11-20T00:57:01.627Z,96212.25
2022-11-20T00:58:04.604Z,96221.56
2022-11-20T00:59:06.643Z,96209.19
2022-11-20T01:00:08.716Z,96189.44
2022-11-20T01:01:17.750Z,96196.41
2022-11-20T01:02:19.522Z,96192.50
2022-11-20T01:03:26.643Z,96192.50
2022-11-20T01:04:28.714Z,96191.38
2022-11-20T01:05:30.231Z,96189.81
2022-11-20T01:06:37.174Z,96191.38
2022-11-20T01:07:39.028Z,96187.50
2022-11-20T01:08:41.653Z,96184.78
2022-11-20T01:09:43.214Z,96184.00
2022-11-20T01:10:44.782Z,96169.72
2022-11-20T01:11:46.566Z,96168.16
2022-11-20T01:13:08.069Z,96165.03
2022-11-20T01:14:15.987Z,96165.81
2022-11-20T01:15:17.557Z,96160.38
2022-11-20T01:16:28.589Z,96161.94
2022-11-20T01:17:31.757Z,96158.06
2022-11-20T01:18:33.615Z,96152.69
2022-11-20T01:19:35.274Z,96169.72
2022-11-20T01:20:37.701Z,96160.38
2022-11-20T01:21:41.917Z,96163.88
2022-11-20T01:22:43.455Z,96168.16
2022-11-20T01:23:45.870Z,96161.19
2022-11-20T01:24:47.469Z,96162.75
2022-11-20T01:25:49.003Z,96163.50
2022-11-20T01:26:51.942Z,96168.91
2022-11-20T01:27:53.483Z,96172.38
2022-11-20T01:28:56.303Z,96161.94
2022-11-20T01:30:01.101Z,96171.19
2022-11-20T01:31:11.983Z,96163.84
2022-11-20T01:32:13.533Z,96151.03
2022-11-20T01:33:15.118Z,96159.94
2022-11-20T01:34:19.435Z,96148.34
2022-11-20T01:35:21.255Z,96153.75
2022-11-20T01:36:24.719Z,96148.72
2022-11-20T01:37:26.235Z,96144.81
2022-11-20T01:38:27.798Z,96152.56
2022-11-20T01:39:29.449Z,96151.00
2022-11-20T01:40:30.967Z,96152.19
2022-11-20T01:41:52.477Z,96153.34
2022-11-20T01:43:37.556Z,96142.06
2022-11-20T01:44:50.986Z,96144.03
2022-11-20T01:46:19.582Z,96138.97
2022-11-20T01:47:35.536Z,96133.56
2022-11-20T01:48:43.787Z,96117.69
2022-11-20T01:49:53.693Z,96125.41
2022-11-20T01:50:55.741Z,96113.78
2022-11-20T01:52:03.502Z,96117.69
2022-11-20T01:53:12.529Z,96117.66
2022-11-20T01:54:18.367Z,96120.34
2022-11-20T01:55:26.906Z,96109.91
2022-11-20T01:56:32.339Z,96123.84
2022-11-20T01:57:36.667Z,96103.31
2022-11-20T01:58:42.701Z,96124.59
2022-11-20T01:59:50.732Z,96113.38
2022-11-20T02:00:52.630Z,96109.88
2022-11-20T02:01:54.529Z,96104.44
2022-11-20T02:03:03.117Z,96115.31
2022-11-20T02:04:04.914Z,96118.41
2022-11-20T02:05:33.982Z,96118.03
2022-11-20T02:06:46.777Z,96124.22
2022-11-20T02:07:49.625Z,96126.91
2022-11-20T02:08:53.317Z,96123.06
2022-11-20T02:09:58.717Z,96111.44
2022-11-20T02:11:00.611Z,96122.69
2022-11-20T02:12:02.529Z,96120.75
2022-11-20T02:13:23.581Z,96116.88
2022-11-20T02:14:26.225Z,96120.75
2022-11-20T02:15:30.427Z,96132.34
2022-11-20T02:16:37.987Z,96136.25
2022-11-20T02:17:39.676Z,96123.03
2022-11-20T02:18:42.113Z,96120.34
2022-11-20T02:19:43.669Z,96114.56
2022-11-20T02:20:47.751Z,96111.44
2022-11-20T02:22:01.269Z,96112.63
2022-11-20T02:23:32.435Z,96106.03
2022-11-20T02:24:34.769Z,96102.16
2022-11-20T02:25:37.916Z,96110.69
2022-11-20T02:26:45.871Z,96096.34
2022-11-20T02:27:47.877Z,96114.16
2022-11-20T02:28:49.915Z,96120.75
2022-11-20T02:30:02.974Z,96117.63
2022-11-20T02:31:04.637Z,96102.13
2022-11-20T02:32:06.701Z,96105.22
2022-11-20T02:33:08.275Z,96100.56
2022-11-20T02:34:10.386Z,96080.44
2022-11-20T02:35:20.800Z,96097.47
2022-11-20T02:36:22.821Z,96091.66
2022-11-20T02:37:31.525Z,96093.59
2022-11-20T02:38:33.072Z,96090.50
2022-11-20T02:39:34.673Z,96085.09
2022-11-20T02:40:36.272Z,96097.88
2022-11-20T02:41:38.760Z,96090.88
2022-11-20T02:42:40.759Z,96094.34
2022-11-20T02:43:42.402Z,96110.66
2022-11-20T02:44:44.024Z,96114.13
2022-11-20T02:45:45.535Z,96103.66
2022-11-20T02:46:47.409Z,96105.59
2022-11-20T02:47:48.964Z,96111.44
2022-11-20T02:48:50.490Z,96098.22
2022-11-20T02:49:51.997Z,96105.59
2022-11-20T02:50:53.542Z,96111.78
2022-11-20T02:51:55.136Z,96114.50
2022-11-20T02:52:56.717Z,96116.47
2022-11-20T02:53:58.553Z,96119.16
2022-11-20T02:55:00.123Z,96116.47
2022-11-20T02:56:01.668Z,96105.22
2022-11-20T02:57:03.325Z,96112.59
2022-11-20T02:58:04.850Z,96116.06
2022-11-20T02:59:06.946Z,96116.06
2022-11-20T03:00:09.548Z,96113.38
2022-11-20T03:01:11.203Z,96096.72
2022-11-20T03:02:12.884Z,96103.72
2022-11-20T03:03:14.441Z,96116.88
2022-11-20T03:04:16.055Z,96114.16
2022-11-20T03:05:17.758Z,96117.63
2022-11-20T03:06:19.283Z,96131.19
2022-11-20T03:07:20.857Z,96109.88
2022-11-20T03:08:22.414Z,96120.72
2022-11-20T03:09:24.177Z,96126.53
2022-11-20T03:10:26.206Z,96128.84
2022-11-20T03:11:27.904Z,96121.09
2022-11-20T03:12:29.434Z,96126.91
2022-11-20T03:13:30.982Z,96137.03
2022-11-20T03:14:32.737Z,96137.03
2022-11-20T03:15:34.310Z,96147.09
2022-11-20T03:16:35.853Z,96131.59
2022-11-20T03:17:37.537Z,96132.00
2022-11-20T03:18:40.167Z,96130.03
2022-11-20T03:19:41.683Z,96135.50
2022-11-20T03:20:43.244Z,96130.84
2022-11-20T03:21:44.854Z,96133.16
2022-11-20T03:22:46.395Z,96136.28
2022-11-20T03:23:48.085Z,96139.38
2022-11-20T03:24:49.607Z,96130.84
2022-11-20T03:25:51.148Z,96130.09
2022-11-20T03:26:52.753Z,96128.56
2022-11-20T03:27:55.261Z,96134.38
2022-11-20T03:28:59.654Z,96128.56
2022-11-20T03:30:01.627Z,96144.81
2022-11-20T03:31:09.373Z,96130.06
2022-11-20T03:32:11.046Z,96136.28
2022-11-20T03:33:12.572Z,96127.38
2022-11-20T03:34:14.557Z,96132.44
2022-11-20T03:35:16.105Z,96132.41
2022-11-20T03:36:20.030Z,96136.28
2022-11-20T03:37:21.629Z,96131.25
2022-11-20T03:38:23.127Z,96129.31
2022-11-20T03:39:24.701Z,96133.97
2022-11-20T03:40:26.298Z,96129.72
2022-11-20T03:41:30.508Z,96131.66
2022-11-20T03:42:47.275Z,96122.34
2022-11-20T03:43:54.694Z,96128.94
2022-11-20T03:44:56.550Z,96125.44
2022-11-20T03:45:58.537Z,96123.91
2022-11-20T03:47:00.076Z,96127.00
2022-11-20T03:48:01.599Z,96122.34
2022-11-20T03:49:03.869Z,96122.34
2022-11-20T03:50:05.925Z,96118.09
2022-11-20T03:51:09.304Z,96123.13
2022-11-20T03:52:10.885Z,96122.34
2022-11-20T03:53:12.399Z,96112.66
2022-11-20T03:54:13.965Z,96113.06
2022-11-20T03:55:15.498Z,96134.34
2022-11-20T03:56:18.989Z,96122.75
2022-11-20T03:57:20.546Z,96129.31
2022-11-20T03:58:22.070Z,96119.25
2022-11-20T03:59:23.791Z,96120.41
2022-11-20T04:00:25.411Z,96121.97
2022-11-20T04:01:30.339Z,96117.72
2022-11-20T04:02:31.943Z,96128.59
2022-11-20T04:03:33.541Z,96121.63
2022-11-20T04:04:35.128Z,96113.09
2022-11-20T04:05:36.770Z,96121.22
2022-11-20T04:06:39.027Z,96114.66
2022-11-20T04:07:40.666Z,96123.19
2022-11-20T04:08:42.722Z,96128.19
2022-11-20T04:09:44.281Z,96121.63
2022-11-20T04:10:45.803Z,96122.00
2022-11-20T04:11:47.486Z,96114.66
2022-11-20T04:12:49.011Z,96119.31
2022-11-20T04:13:56.459Z,96121.22
2022-11-20T04:14:58.037Z,96127.06
2022-11-20T04:15:59.563Z,96122.03
2022-11-20T04:17:01.082Z,96115.84
2022-11-20T04:18:02.598Z,96113.91
2022-11-20T04:19:07.162Z,96113.16
2022-11-20T04:20:09.187Z,96106.94
2022-11-20T04:21:12.016Z,96113.16
2022-11-20T04:22:13.606Z,96103.06
2022-11-20T04:23:15.102Z,96096.13
2022-11-20T04:24:16.750Z,96093.78
2022-11-20T04:25:18.339Z,96097.66
2022-11-20T04:26:21.050Z,96095.31
2022-11-20T04:27:22.639Z,96104.22
2022-11-20T04:28:24.125Z,96105.75
2022-11-20T04:29:25.636Z,96108.47
2022-11-20T04:30:27.189Z,96107.69
2022-11-20T04:31:32.574Z,96096.84
2022-11-20T04:32:34.146Z,96094.50
2022-11-20T04:33:37.317Z,96102.25
2022-11-20T04:34:38.914Z,96105.34
2022-11-20T04:35:40.442Z,96098.38
2022-11-20T04:36:42.036Z,96101.09
2022-11-20T04:37:43.627Z,96110.81
2022-11-20T04:38:46.047Z,96112.34
2022-11-20T04:39:47.599Z,96110.03
2022-11-20T04:40:49.158Z,96111.97
2022-11-20T04:42:10.745Z,96105.38
2022-11-20T04:43:12.293Z,96113.91
2022-11-20T04:44:13.832Z,96109.63
2022-11-20T04:45:15.388Z,96114.69
2022-11-20T04:46:18.607Z,96099.97
2022-11-20T04:47:20.217Z,96105.38
2022-11-20T04:48:22.382Z,96104.59
2022-11-20T04:49:24.078Z,96105.00
2022-11-20T04:50:25.840Z,96096.88
2022-11-20T04:51:28.301Z,96118.56
2022-11-20T04:52:29.865Z,96113.16
2022-11-20T04:53:31.650Z,96109.28
2022-11-20T04:54:33.201Z,96114.69
2022-11-20T04:55:34.802Z,96113.13
2022-11-20T04:56:36.428Z,96117.00
2022-11-20T04:57:37.952Z,96117.34
2022-11-20T04:58:40.069Z,96121.63
2022-11-20T04:59:41.704Z,96120.06
2022-11-20T05:00:43.596Z,96122.41
2022-11-20T05:01:45.251Z,96116.22
2022-11-20T05:02:46.838Z,96116.22
2022-11-20T05:03:48.399Z,96117.41
2022-11-20T05:04:50.096Z,96117.00
2022-11-20T05:05:51.633Z,96119.34
2022-11-20T05:06:53.165Z,96129.41
2022-11-20T05:07:57.395Z,96127.09
2022-11-20T05:08:59.351Z,96127.88
2022-11-20T05:10:00.874Z,96123.22
2022-11-20T05:11:11.745Z,96120.53
2022-11-20T05:12:13.313Z,96127.88
2022-11-20T05:13:14.854Z,96129.06
2022-11-20T05:14:16.503Z,96134.09
2022-11-20T05:15:18.416Z,96129.47
2022-11-20T05:16:24.610Z,96132.53
2022-11-20T05:17:26.556Z,96132.94
2022-11-20T05:18:28.075Z,96135.63
2022-11-20T05:19:29.599Z,96134.06
2022-11-20T05:20:31.463Z,96136.34
2022-11-20T05:21:33.453Z,96130.13
2022-11-20T05:22:35.018Z,96134.03
2022-11-20T05:23:37.113Z,96138.31
2022-11-20T05:24:38.725Z,96137.53
2022-11-20T05:25:40.384Z,96128.59
2022-11-20T05:26:42.034Z,96133.22
2022-11-20T05:27:43.727Z,96134.78
2022-11-20T05:28:45.790Z,96139.44
2022-11-20T05:29:47.326Z,96137.09
2022-11-20T05:30:49.663Z,96133.22
2022-11-20T05:31:51.198Z,96139.44
2022-11-20T05:32:52.810Z,96141.00
2022-11-20T05:33:54.760Z,96142.50
2022-11-20T05:34:56.334Z,96144.06
2022-11-20T05:36:00.808Z,96145.59
2022-11-20T05:37:03.471Z,96152.59
2022-11-20T05:38:04.975Z,96161.06
2022-11-20T05:39:06.645Z,96166.13
2022-11-20T05:40:08.892Z,96165.72
2022-11-20T05:41:18.896Z,96168.84
2022-11-20T05:42:33.147Z,96174.25
2022-11-20T05:43:39.858Z,96171.13
2022-11-20T05:44:41.390Z,96169.56
2022-11-20T05:45:43.343Z,96170.31
2022-11-20T05:46:44.865Z,96181.16
2022-11-20T05:47:46.462Z,96181.16
2022-11-20T05:48:48.771Z,96187.38
2022-11-20T05:49:50.380Z,96191.66
2022-11-20T05:50:51.963Z,96189.34
2022-11-20T05:51:53.483Z,96185.47
2022-11-20T05:52:55.171Z,96184.25
2022-11-20T05:53:59.931Z,96191.25
2022-11-20T05:55:01.960Z,96199.00
2022-11-20T05:56:12.062Z,96199.81
2022-11-20T05:57:13.619Z,96193.59
2022-11-20T05:58:15.172Z,96202.16
2022-11-20T05:59:16.690Z,96206.78
2022-11-20T06:00:18.483Z,96199.38
2022-11-20T06:01:21.414Z,96200.56
2022-11-20T06:02:23.024Z,96208.69
2022-11-20T06:03:24.822Z,96213.75
2022-11-20T06:04:26.499Z,96213.34
2022-11-20T06:05:28.578Z,96200.56
2022-11-20T06:06:30.165Z,96205.22
2022-11-20T06:07:31.774Z,96202.91
2022-11-20T06:08:33.788Z,96204.47
2022-11-20T06:09:35.364Z,96206.00
2022-11-20T06:10:36.903Z,96203.69
2022-11-20T06:11:39.570Z,96201.38
2022-11-20T06:12:41.257Z,96199.84
2022-11-20T06:13:43.393Z,96199.88
2022-11-20T06:14:44.962Z,96197.16
2022-11-20T06:15:54.575Z,96196.00
2022-11-20T06:16:57.536Z,96193.69
2022-11-20T06:17:59.963Z,96188.28
2022-11-20T06:19:01.498Z,96194.50
2022-11-20T06:20:03.474Z,96190.22
2022-11-20T06:21:08.528Z,96185.94
2022-11-20T06:22:10.088Z,96198.38
2022-11-20T06:23:11.856Z,96184.03
2022-11-20T06:24:13.490Z,96193.34
2022-11-20T06:25:15.219Z,96183.66
2022-11-20T06:26:22.623Z,96185.22
2022-11-20T06:27:24.191Z,96184.47
2022-11-20T06:28:25.844Z,96186.00
2022-11-20T06:29:31.416Z,96175.94
2022-11-20T06:30:36.195Z,96182.91
2022-11-20T06:31:38.806Z,96172.06
2022-11-20T06:32:40.497Z,96172.06
2022-11-20T06:33:43.576Z,96178.28
2022-11-20T06:34:45.147Z,96181.38
2022-11-20T06:35:46.716Z,96182.91
2022-11-20T06:36:48.322Z,96187.94
2022-11-20T06:37:50.008Z,96187.16
2022-11-20T06:38:51.719Z,96191.81
2022-11-20T06:39:53.316Z,96192.22
2022-11-20T06:40:55.243Z,96199.94
2022-11-20T06:41:59.052Z,96194.53
2022-11-20T06:43:00.954Z,96195.69
2022-11-20T06:44:04.271Z,96192.97
2022-11-20T06:45:06.312Z,96198.41
2022-11-20T06:46:09.947Z,96199.16
2022-11-20T06:47:11.461Z,96198.41
2022-11-20T06:48:13.003Z,96193.75
2022-11-20T06:49:14.541Z,96193.34
2022-11-20T06:50:16.202Z,96200.72
2022-11-20T06:51:18.265Z,96199.91
2022-11-20T06:52:19.827Z,96203.78
2022-11-20T06:53:22.743Z,96200.28
2022-11-20T06:54:24.255Z,96202.59
2022-11-20T06:55:25.791Z,96201.03
2022-11-20T06:56:27.359Z,96202.19
2022-11-20T06:57:31.358Z,96200.63
2022-11-20T06:58:35.024Z,96209.97
2022-11-20T06:59:36.545Z,96211.50
2022-11-20T07:00:38.098Z,96206.88
2022-11-20T07:01:39.642Z,96204.53
2022-11-20T07:02:41.218Z,96206.84
2022-11-20T07:03:43.476Z,96216.13
2022-11-20T07:04:45.010Z,96206.06
2022-11-20T07:05:47.095Z,96200.69
2022-11-20T07:06:49.590Z,96190.59
2022-11-20T07:07:51.165Z,96191.41
2022-11-20T07:08:53.607Z,96191.41
2022-11-20T07:09:55.161Z,96194.47
2022-11-20T07:11:01.782Z,96187.53
2022-11-20T07:12:03.361Z,96184.41
2022-11-20T07:13:04.979Z,96182.09
2022-11-20T07:14:06.524Z,96175.91
2022-11-20T07:15:08.441Z,96173.19
2022-11-20T07:16:10.234Z,96182.88
2022-11-20T07:17:12.844Z,96182.88
2022-11-20T07:18:14.389Z,96185.97
2022-11-20T07:19:15.966Z,96181.31
2022-11-20T07:20:17.734Z,96190.63
2022-11-20T07:21:19.307Z,96179.00
2022-11-20T07:22:22.635Z,96181.72
2022-11-20T07:23:24.295Z,96184.78
2022-11-20T07:24:25.917Z,96200.66
2022-11-20T07:25:28.943Z,96201.03
2022-11-20T07:26:30.506Z,96191.34
2022-11-20T07:27:32.057Z,96189.78
2022-11-20T07:28:34.369Z,96183.97
2022-11-20T07:29:35.889Z,96185.16
2022-11-20T07:30:37.477Z,96192.88
2022-11-20T07:31:39.376Z,96194.44
2022-11-20T07:32:40.933Z,96192.09
2022-11-20T07:33:42.570Z,96187.47
2022-11-20T07:34:44.194Z,96182.81
2022-11-20T07:35:46.748Z,96189.78
2022-11-20T07:36:48.252Z,96184.38
2022-11-20T07:37:49.892Z,96187.47
2022-11-20T07:38:51.531Z,96191.69
2022-11-20T07:39:53.115Z,96194.00
2022-11-20T07:40:56.962Z,96192.84
2022-11-20T07:41:58.545Z,96181.25
2022-11-20T07:43:00.129Z,96197.53
2022-11-20T07:44:02.182Z,96194.81
2022-11-20T07:45:04.086Z,96197.91
2022-11-20T07:46:05.681Z,96188.22
2022-11-20T07:47:07.204Z,96185.09
2022-11-20T07:48:08.799Z,96169.63
2022-11-20T07:49:10.299Z,96171.16
2022-11-20T07:50:12.495Z,96178.91
2022-11-20T07:51:14.562Z,96181.22
2022-11-20T07:52:16.062Z,96183.59
2022-11-20T07:53:21.730Z,96178.16
2022-11-20T07:54:24.153Z,96175.03
2022-11-20T07:55:25.678Z,96169.63
2022-11-20T07:56:27.230Z,96177.75
2022-11-20T07:57:28.786Z,96164.22
2022-11-20T07:58:31.379Z,96175.84
2022-11-20T07:59:32.910Z,96176.59
2022-11-20T08:00:34.508Z,96168.84
2022-11-20T08:01:36.193Z,96177.75
2022-11-20T08:02:39.949Z,96180.06
2022-11-20T08:03:41.511Z,96185.88
2022-11-20T08:04:43.027Z,96186.66
2022-11-20T08:05:44.611Z,96176.19
2022-11-20T08:06:46.225Z,96173.47
2022-11-20T08:07:48.042Z,96171.16
2022-11-20T08:08:49.597Z,96171.13
2022-11-20T08:09:51.126Z,96173.50
2022-11-20T08:10:52.631Z,96168.81
2022-11-20T08:12:12.602Z,96159.91
2022-11-20T08:13:32.526Z,96159.53
2022-11-20T08:14:34.059Z,96153.34
2022-11-20T08:15:36.298Z,96165.75
2022-11-20T08:16:37.905Z,96162.28
2022-11-20T08:17:39.449Z,96156.84
2022-11-20T08:18:40.999Z,96157.19
2022-11-20T08:19:42.714Z,96159.53
2022-11-20T08:20:44.939Z,96157.19
2022-11-20T08:21:46.946Z,96157.63
2022-11-20T08:22:48.501Z,96154.50
2022-11-20T08:23:50.286Z,96149.84
2022-11-20T08:24:51.921Z,96148.72
2022-11-20T08:25:53.465Z,96137.88
2022-11-20T08:26:55.077Z,96153.34
2022-11-20T08:28:12.965Z,96152.19
2022-11-20T08:29:20.556Z,96145.59
2022-11-20T08:30:22.438Z,96146.34
2022-11-20T08:31:25.527Z,96154.13
2022-11-20T08:32:27.089Z,96162.66
2022-11-20T08:33:29.038Z,96158.78
2022-11-20T08:34:30.582Z,96163.41
2022-11-20T08:35:36.936Z,96156.44
2022-11-20T08:36:38.503Z,96149.47
2022-11-20T08:37:42.470Z,96162.63
2022-11-20T08:38:51.694Z,96157.59
2022-11-20T08:39:54.586Z,96160.31
2022-11-20T08:41:19.226Z,96168.84
2022-11-20T08:42:20.744Z,96171.97
2022-11-20T08:43:22.286Z,96172.72
2022-11-20T08:44:23.826Z,96168.09
2022-11-20T08:45:28.461Z,96181.25
2022-11-20T08:46:38.009Z,96183.19
2022-11-20T08:47:39.568Z,96185.13
2022-11-20T08:48:41.264Z,96188.25
2022-11-20T08:49:42.892Z,96181.28
2022-11-20T08:50:44.411Z,96191.69
2022-11-20T08:51:46.269Z,96178.94
2022-11-20T08:52:47.842Z,96177.38
2022-11-20T08:53:52.532Z,96178.94
2022-11-20T08:54:54.085Z,96180.47
2022-11-20T08:55:55.868Z,96178.16
2022-11-20T08:56:57.443Z,96185.91
2022-11-20T08:57:59.057Z,96185.91
2022-11-20T09:00:22.415Z,96176.63
2022-11-20T09:01:24.632Z,96177.38
2022-11-20T09:02:26.936Z,96178.16
2022-11-20T09:03:32.618Z,96166.53
2022-11-20T09:04:34.618Z,96173.50
2022-11-20T09:05:36.294Z,96166.91
2022-11-20T09:06:37.826Z,96182.00
2022-11-20T09:07:39.388Z,96170.00
2022-11-20T09:08:41.255Z,96156.84
2022-11-20T09:09:42.789Z,96161.06
2022-11-20T09:10:44.444Z,96153.34
2022-11-20T09:11:46.066Z,96152.56
2022-11-20T09:12:50.142Z,96162.66
2022-11-20T09:13:51.961Z,96151.78
2022-11-20T09:14:55.091Z,96158.75
2022-11-20T09:16:01.222Z,96147.53
2022-11-20T09:17:02.838Z,96148.66
2022-11-20T09:18:05.987Z,96156.06
2022-11-20T09:19:36.272Z,96147.91
2022-11-20T09:20:30.649Z,96151.75
2022-11-20T09:21:32.151Z,96150.97
2022-11-20T09:22:33.886Z,96158.34
2022-11-20T09:23:36.727Z,96162.22
2022-11-20T09:24:38.537Z,96159.09
2022-11-20T09:25:40.073Z,96157.56
2022-11-20T09:26:41.604Z,96147.88
2022-11-20T09:27:45.035Z,96157.13
2022-11-20T09:28:46.659Z,96154.44
2022-11-20T09:29:48.204Z,96147.81
2022-11-20T09:30:49.711Z,96150.13
2022-11-20T09:31:51.382Z,96154.34
2022-11-20T09:32:53.855Z,96150.84
2022-11-20T09:33:55.710Z,96148.91
2022-11-20T09:34:57.249Z,96137.28
2022-11-20T09:35:58.817Z,96147.72
2022-11-20T09:37:03.163Z,96150.06
2022-11-20T09:38:10.108Z,96145.38
2022-11-20T09:39:11.694Z,96144.28
2022-11-20T09:40:25.322Z,96143.88
2022-11-20T09:41:53.663Z,96146.16
2022-11-20T09:43:10.750Z,96149.31
2022-11-20T09:44:40.173Z,96153.19
2022-11-20T09:45:56.467Z,96135.75
2022-11-20T09:47:09.830Z,96147.41
2022-11-20T09:48:58.844Z,96133.84
2022-11-20T09:50:34.097Z,96136.94
2022-11-20T09:52:00.862Z,96133.44
2022-11-20T09:53:25.865Z,96148.56
2022-11-20T09:54:32.504Z,96132.25
2022-11-20T09:55:37.111Z,96132.22
2022-11-20T09:56:42.092Z,96126.88
2022-11-20T09:57:49.783Z,96112.13
2022-11-20T09:59:03.866Z,96119.84
2022-11-20T10:00:12.330Z,96125.28
2022-11-20T10:01:17.405Z,96123.72
2022-11-20T10:02:25.168Z,96125.66
2022-11-20T10:03:42.888Z,96131.06
2022-11-20T10:05:13.948Z,96117.56
2022-11-20T10:06:19.114Z,96124.53
2022-11-20T10:07:32.531Z,96121.44
2022-11-20T10:08:45.350Z,96123.00
2022-11-20T10:09:55.921Z,96133.06
2022-11-20T10:11:07.602Z,96124.56
2022-11-20T10:12:36.871Z,96130.00
2022-11-20T10:13:58.454Z,96120.75
2022-11-20T10:15:18.852Z,96105.22
2022-11-20T10:16:29.518Z,96113.00
2022-11-20T10:17:57.434Z,96112.63
2022-11-20T10:18:58.904Z,96102.94
2022-11-20T10:20:35.608Z,96102.19
2022-11-20T10:21:40.050Z,96118.44
2022-11-20T10:23:09.256Z,96101.44
2022-11-20T10:24:35.657Z,96100.69
2022-11-20T10:25:55.320Z,96105.34
2022-11-20T10:27:24.387Z,96103.81
2022-11-20T10:28:52.744Z,96094.50
2022-11-20T10:30:14.470Z,96095.25
2022-11-20T10:31:29.014Z,96108.41
2022-11-20T10:32:43.378Z,96113.88
2022-11-20T10:34:11.058Z,96108.47
2022-11-20T10:35:14.753Z,96117.75
2022-11-20T10:36:27.161Z,96104.19
2022-11-20T10:37:32.130Z,96112.31
2022-11-20T10:38:54.362Z,96114.66
2022-11-20T10:40:19.277Z,96113.09
2022-11-20T10:41:47.266Z,96099.19
2022-11-20T10:42:57.118Z,96098.38
2022-11-20T10:44:13.403Z,96104.59
2022-11-20T10:45:29.819Z,96100.72
2022-11-20T10:46:41.738Z,96102.31
2022-11-20T10:47:43.276Z,96113.56
2022-11-20T10:48:46.388Z,96105.00
2022-11-20T10:49:52.022Z,96105.44
2022-11-20T10:51:32.809Z,96096.13
2022-11-20T10:52:42.665Z,96114.31
2022-11-20T10:53:48.030Z,96097.66
2022-11-20T10:55:10.739Z,96098.06
2022-11-20T10:56:28.902Z,96103.13
2022-11-20T10:57:56.261Z,96103.13
2022-11-20T10:59:03.919Z,96100.41
2022-11-20T11:00:07.494Z,96093.06
2022-11-20T11:01:17.267Z,96090.34
2022-11-20T11:02:32.066Z,96105.44
2022-11-20T11:03:33.919Z,96100.00
2022-11-20T11:04:45.404Z,96086.84
2022-11-20T11:05:55.055Z,96090.72
2022-11-20T11:07:06.573Z,96093.03
2022-11-20T11:08:14.929Z,96096.88
2022-11-20T11:09:22.690Z,96096.91
2022-11-20T11:10:52.280Z,96089.94
2022-11-20T11:11:53.869Z,96088.78
2022-11-20T11:12:55.442Z,96093.81
2022-11-20T11:14:14.722Z,96093.78
2022-11-20T11:15:29.580Z,96101.13
2022-11-20T11:16:31.359Z,96098.44
2022-11-20T11:17:35.140Z,96102.31
2022-11-20T11:18:36.982Z,96103.84
2022-11-20T11:19:38.535Z,96103.44
2022-11-20T11:20:50.574Z,96107.69
2022-11-20T11:21:57.616Z,96111.22
2022-11-20T11:23:00.511Z,96110.78
2022-11-20T11:24:27.055Z,96114.66
2022-11-20T11:25:37.273Z,96113.91
2022-11-20T11:26:38.932Z,96112.00
2022-11-20T11:27:48.909Z,96127.09
2022-11-20T11:29:01.169Z,96124.00
2022-11-20T11:30:17.768Z,96136.38
2022-11-20T11:31:27.552Z,96134.84
2022-11-20T11:32:29.109Z,96131.00
2022-11-20T11:33:34.618Z,96133.28
2022-11-20T11:34:36.275Z,96129.44
2022-11-20T11:35:58.053Z,96127.50
2022-11-20T11:37:01.669Z,96127.91
2022-11-20T11:38:13.682Z,96124.81
2022-11-20T11:39:18.079Z,96126.38
2022-11-20T11:40:24.934Z,96131.03
2022-11-20T11:41:36.628Z,96133.75
2022-11-20T11:42:45.002Z,96144.97
2022-11-20T11:44:14.882Z,96150.78
2022-11-20T11:45:18.426Z,96161.63
2022-11-20T11:46:22.539Z,96165.50
2022-11-20T11:47:42.407Z,96165.88
2022-11-20T11:49:15.632Z,96173.97
2022-11-20T11:50:21.444Z,96172.03
2022-11-20T11:51:23.241Z,96167.00
2022-11-20T11:52:26.388Z,96172.81
2022-11-20T11:53:30.122Z,96173.19
2022-11-20T11:54:58.503Z,96161.59
2022-11-20T11:56:09.184Z,96156.22
2022-11-20T11:57:17.133Z,96172.06
2022-11-20T11:58:37.217Z,96180.59
2022-11-20T12:00:00.450Z,96173.25
2022-11-20T12:01:05.305Z,96185.22
2022-11-20T12:02:23.967Z,96176.72
2022-11-20T12:03:36.253Z,96167.41
2022-11-20T12:04:50.463Z,96161.63
2022-11-20T12:05:59.761Z,96164.72
2022-11-20T12:07:45.548Z,96162.78
2022-11-20T12:08:55.641Z,96154.31
2022-11-20T12:09:58.656Z,96153.53
2022-11-20T12:11:44.845Z,96145.44
2022-11-20T12:12:53.332Z,96150.47
2022-11-20T12:14:02.984Z,96152.00
2022-11-20T12:15:05.888Z,96153.56
2022-11-20T12:16:13.105Z,96155.88
2022-11-20T12:17:15.422Z,96150.81
2022-11-20T12:18:21.991Z,96154.69
2022-11-20T12:19:23.747Z,96151.19
2022-11-20T12:20:33.666Z,96138.06
2022-11-20T12:21:50.151Z,96141.16
2022-11-20T12:23:00.556Z,96144.25
2022-11-20T12:24:14.187Z,96129.94
2022-11-20T12:25:19.635Z,96116.81
2022-11-20T12:26:32.768Z,96121.03
2022-11-20T12:27:43.295Z,96125.31
2022-11-20T12:29:01.623Z,96107.13
2022-11-20T12:30:12.105Z,96122.22
2022-11-20T12:31:36.720Z,96100.94
2022-11-20T12:33:13.559Z,96092.44
2022-11-20T12:34:32.080Z,96106.38
2022-11-20T12:35:49.813Z,96110.63
2022-11-20T12:37:06.975Z,96113.31
2022-11-20T12:38:33.318Z,96109.47
2022-11-20T12:39:44.314Z,96111.38
2022-11-20T12:41:01.562Z,96107.91
2022-11-20T12:42:56.485Z,96111.00
2022-11-20T12:44:52.878Z,96112.53
2022-11-20T12:46:06.404Z,96112.56
2022-11-20T12:47:25.191Z,96109.84
2022-11-20T12:48:26.680Z,96112.53
2022-11-20T12:49:38.441Z,96107.91
2022-11-20T12:51:00.149Z,96117.97
2022-11-20T12:52:27.940Z,96113.75
2022-11-20T12:53:58.041Z,96107.91